Altamont, Utah
Current Conditions -  °F | °C
As of 3:53 AM on Monday 20 Oct 2014 (Local Time) from KVEL Reporting Station
Clear Clear  
Wind Chill: 43°   Ceiling: Unl
Heat Index: 43°   Visibility: 10mi
Dew Point: 32°   Wind: 3mph
Humidity: 65%   Direction: 140°SE
Pressure: 30.13"   Gusts: NA
Location:  40.36°N, 110.29°W
Report Text: KVEL 200953Z AUTO 14003KT 10SM CLR 06/00 A3013 RMK AO2 SLP166 T00610000
Loading
Personal Weather Stations






























Interactive Weather Map New forecast layout! Learn more

10-Day Weather Forecast

Advertisements
Track Severe Weather on mobile